createdAt,value
2023-03-11T00:01:10.401Z,0.05
2023-03-11T00:03:37.537Z,0.26
2023-03-11T00:06:05.113Z,0.09
2023-03-11T00:08:32.247Z,0.17
2023-03-11T00:11:00.588Z,0.09
2023-03-11T00:13:29.478Z,0.08
2023-03-11T00:15:57.914Z,-0.06
2023-03-11T00:18:28.055Z,0.14
2023-03-11T00:20:56.878Z,0.05
2023-03-11T00:23:25.275Z,0.07
2023-03-11T00:25:52.889Z,0.08
2023-03-11T00:28:22.242Z,-0.09
2023-03-11T00:30:49.664Z,-0.01
2023-03-11T00:33:16.940Z,-0.03
2023-03-11T00:35:44.842Z,0.13
2023-03-11T00:38:16.735Z,-0.05
2023-03-11T00:40:46.972Z,-0.17
2023-03-11T00:43:15.224Z,-0.23
2023-03-11T00:45:42.963Z,-0.19
2023-03-11T00:48:11.317Z,-0.13
2023-03-11T00:50:38.759Z,-0.18
2023-03-11T00:53:06.657Z,-0.17
2023-03-11T00:55:35.152Z,-0.16
2023-03-11T00:58:07.298Z,-0.30
2023-03-11T01:00:44.252Z,-0.19
2023-03-11T01:03:11.312Z,-0.11
2023-03-11T01:05:38.621Z,-0.30
2023-03-11T01:08:05.822Z,0.17
2023-03-11T01:10:36.725Z,0.11
2023-03-11T01:13:04.782Z,0.02
2023-03-11T01:15:35.019Z,-0.08
2023-03-11T01:18:03.058Z,-0.18
2023-03-11T01:20:32.748Z,-0.20
2023-03-11T01:22:59.768Z,-0.18
2023-03-11T01:25:28.461Z,-0.15
2023-03-11T01:27:59.167Z,0.08
2023-03-11T01:30:27.653Z,-0.21
2023-03-11T01:32:56.817Z,-0.20
2023-03-11T01:35:26.615Z,0.04
2023-03-11T01:37:55.332Z,-0.11
2023-03-11T01:40:34.025Z,-0.11
2023-03-11T01:43:07.693Z,0.16
2023-03-11T01:46:02.367Z,-0.06
2023-03-11T01:48:30.930Z,-0.10
2023-03-11T01:50:58.750Z,0.03
2023-03-11T01:53:26.387Z,0.10
2023-03-11T01:55:53.778Z,-0.05
2023-03-11T01:58:25.311Z,-0.18
2023-03-11T02:00:55.097Z,-0.10
2023-03-11T02:03:29.297Z,0.02
2023-03-11T02:05:57.673Z,-0.09
2023-03-11T02:08:25.134Z,-0.21
2023-03-11T02:10:54.176Z,-0.25
2023-03-11T02:13:22.218Z,-0.18
2023-03-11T02:15:49.822Z,-0.29
2023-03-11T02:18:20.288Z,-0.28
2023-03-11T02:21:06.140Z,-0.11
2023-03-11T02:23:59.683Z,-0.13
2023-03-11T02:26:39.540Z,-0.16
2023-03-11T02:29:09.500Z,0.07
2023-03-11T02:31:43.105Z,-0.13
2023-03-11T02:34:23.573Z,-0.16
2023-03-11T02:36:50.882Z,-0.17
2023-03-11T02:39:41.073Z,-0.22
2023-03-11T02:42:38.177Z,-0.15
2023-03-11T02:45:09.815Z,-0.10
2023-03-11T02:47:38.788Z,-0.20
2023-03-11T02:50:11.483Z,-0.13
2023-03-11T02:52:38.596Z,0.08
2023-03-11T02:55:07.461Z,-0.01
2023-03-11T02:57:34.506Z,0.05
2023-03-11T03:00:08.749Z,0.01
2023-03-11T03:02:36.902Z,-0.14
2023-03-11T03:05:05.867Z,-0.12
2023-03-11T03:07:33.617Z,-0.10
2023-03-11T03:10:01.981Z,-0.29
2023-03-11T03:12:30.099Z,-0.23
2023-03-11T03:14:58.295Z,-0.23
2023-03-11T03:17:25.766Z,-0.06
2023-03-11T03:19:53.222Z,-0.20
2023-03-11T03:22:20.291Z,0.02
2023-03-11T03:24:48.665Z,0.01
2023-03-11T03:27:15.912Z,-0.03
2023-03-11T03:29:43.259Z,0.03
2023-03-11T03:32:10.569Z,-0.25
2023-03-11T03:34:37.944Z,-0.12
2023-03-11T03:37:05.150Z,0.09
2023-03-11T03:39:33.151Z,-0.15
2023-03-11T03:42:00.500Z,-0.22
2023-03-11T03:44:31.081Z,0.13
2023-03-11T03:46:59.712Z,-0.07
2023-03-11T03:49:27.581Z,-0.17
2023-03-11T03:51:55.281Z,-0.23
2023-03-11T03:54:32.469Z,-0.26
2023-03-11T03:56:59.584Z,-0.12
2023-03-11T03:59:26.952Z,-0.09
2023-03-11T04:01:57.990Z,-0.13
2023-03-11T04:04:26.743Z,0.24
2023-03-11T04:06:54.443Z,-0.06
2023-03-11T04:09:22.089Z,-0.30
2023-03-11T04:11:49.197Z,0.21
2023-03-11T04:14:17.821Z,-0.07
2023-03-11T04:16:52.140Z,-0.07
2023-03-11T04:19:19.447Z,0.25
2023-03-11T04:21:46.628Z,-0.14
2023-03-11T04:24:13.950Z,-0.33
2023-03-11T04:26:41.056Z,-0.16
2023-03-11T04:29:13.132Z,-0.09
2023-03-11T04:31:44.374Z,-0.30
2023-03-11T04:34:12.467Z,-0.24
2023-03-11T04:36:40.259Z,-0.48
2023-03-11T04:39:08.150Z,-0.10
2023-03-11T04:41:40.848Z,-0.23
2023-03-11T04:44:09.834Z,-0.25
2023-03-11T04:46:37.434Z,-0.41
2023-03-11T04:49:07.107Z,-0.16
2023-03-11T04:51:34.264Z,-0.31
2023-03-11T04:54:01.539Z,-0.14
2023-03-11T04:56:30.374Z,-0.17
2023-03-11T04:58:58.394Z,-0.35
2023-03-11T05:01:26.311Z,-0.23
2023-03-11T05:03:53.648Z,-0.08
2023-03-11T05:06:21.247Z,-0.06
2023-03-11T05:08:48.850Z,-0.20
2023-03-11T05:11:15.866Z,-0.50
2023-03-11T05:13:45.185Z,-0.35
2023-03-11T05:16:12.370Z,-0.26
2023-03-11T05:18:39.695Z,-0.38
2023-03-11T05:21:06.949Z,-0.54
2023-03-11T05:23:36.476Z,-0.35
2023-03-11T05:26:03.550Z,-0.59
2023-03-11T05:28:32.101Z,-0.46
2023-03-11T05:30:59.188Z,-0.41
2023-03-11T05:33:32.245Z,-0.19
2023-03-11T05:36:03.921Z,-0.38
2023-03-11T05:38:31.338Z,-0.38
2023-03-11T05:40:58.285Z,-0.44
2023-03-11T05:43:25.459Z,-0.31
2023-03-11T05:45:54.839Z,-0.31
2023-03-11T05:48:22.391Z,-0.12
2023-03-11T05:50:49.593Z,-0.35
2023-03-11T05:53:17.461Z,-0.29
2023-03-11T05:55:44.320Z,-0.24
2023-03-11T05:58:11.722Z,-0.32
2023-03-11T06:00:38.752Z,-0.44
2023-03-11T06:03:06.241Z,-0.44
2023-03-11T06:05:33.379Z,-0.28
2023-03-11T06:08:00.702Z,-0.26
2023-03-11T06:10:28.503Z,-0.17
2023-03-11T06:12:56.224Z,-0.47
2023-03-11T06:15:26.654Z,-0.68
2023-03-11T06:17:54.650Z,-0.30
2023-03-11T06:20:22.088Z,-0.50
2023-03-11T06:22:49.753Z,-0.50
2023-03-11T06:25:17.240Z,-0.46
2023-03-11T06:27:50.690Z,-0.37
2023-03-11T06:30:18.505Z,-0.32
2023-03-11T06:32:55.291Z,-0.37
2023-03-11T06:35:22.513Z,-0.31
2023-03-11T06:37:49.745Z,-0.41
2023-03-11T06:40:17.172Z,-0.15
2023-03-11T06:42:46.309Z,-0.10
2023-03-11T06:45:13.307Z,-0.28
2023-03-11T06:47:48.288Z,-0.34
2023-03-11T06:50:25.282Z,-0.36
2023-03-11T06:52:55.217Z,0.02
2023-03-11T06:55:23.514Z,-0.10
2023-03-11T06:57:51.047Z,-0.20
2023-03-11T07:00:18.949Z,-0.30
2023-03-11T07:02:51.984Z,0.00
2023-03-11T07:05:19.467Z,-0.23
2023-03-11T07:07:49.069Z,-0.27
2023-03-11T07:10:17.028Z,-0.25
2023-03-11T07:12:44.806Z,-0.06
2023-03-11T07:15:11.996Z,-0.14
2023-03-11T07:17:40.275Z,-0.14
2023-03-11T07:20:09.611Z,-0.23
2023-03-11T07:22:38.399Z,0.02
2023-03-11T07:25:07.259Z,-0.19
2023-03-11T07:27:34.736Z,-0.10
2023-03-11T07:30:04.802Z,-0.17
2023-03-11T07:32:33.355Z,0.15
2023-03-11T07:35:00.453Z,-0.01
2023-03-11T07:37:27.743Z,-0.07
2023-03-11T07:39:54.832Z,0.32
2023-03-11T07:42:22.224Z,-0.14
2023-03-11T07:44:52.365Z,-0.20
2023-03-11T07:47:19.938Z,-0.15
2023-03-11T07:49:47.019Z,-0.01
2023-03-11T07:52:14.483Z,0.14
2023-03-11T07:54:41.476Z,0.26
2023-03-11T07:57:13.017Z,0.13
2023-03-11T07:59:40.081Z,-0.04
2023-03-11T08:02:07.452Z,0.13
2023-03-11T08:04:34.566Z,-0.19
2023-03-11T08:07:01.979Z,-0.03
2023-03-11T08:09:29.144Z,0.16
2023-03-11T08:11:56.490Z,0.06
2023-03-11T08:14:23.743Z,-0.37
2023-03-11T08:16:51.245Z,0.06
2023-03-11T08:19:18.581Z,0.22
2023-03-11T08:21:46.130Z,0.08
2023-03-11T08:24:13.972Z,-0.25
2023-03-11T08:26:42.181Z,-0.04
2023-03-11T08:29:09.504Z,0.29
2023-03-11T08:31:37.101Z,0.30
2023-03-11T08:34:05.796Z,0.53
2023-03-11T08:36:33.932Z,0.48
2023-03-11T08:39:01.226Z,0.09
2023-03-11T08:41:29.314Z,0.41
2023-03-11T08:43:56.637Z,0.38
2023-03-11T08:46:29.745Z,0.29
2023-03-11T08:49:00.790Z,0.28
2023-03-11T08:51:29.630Z,0.24
2023-03-11T08:53:56.644Z,0.08
2023-03-11T08:56:24.381Z,0.45
2023-03-11T08:58:51.984Z,0.30
2023-03-11T09:01:20.295Z,0.46
2023-03-11T09:03:47.371Z,0.59
2023-03-11T09:06:15.822Z,0.41
2023-03-11T09:08:43.525Z,0.17
2023-03-11T09:11:13.590Z,0.30
2023-03-11T09:13:41.547Z,0.46
2023-03-11T09:16:12.266Z,0.36
2023-03-11T09:18:39.438Z,0.56
2023-03-11T09:21:06.840Z,0.40
2023-03-11T09:23:33.882Z,0.56
2023-03-11T09:26:01.239Z,0.23
2023-03-11T09:28:28.414Z,0.38
2023-03-11T09:30:55.992Z,0.56
2023-03-11T09:33:22.975Z,0.51
2023-03-11T09:35:50.476Z,0.21
2023-03-11T09:38:17.370Z,0.50
2023-03-11T09:40:50.381Z,0.72
2023-03-11T09:43:29.222Z,0.56
2023-03-11T09:46:26.474Z,0.44
2023-03-11T09:48:59.513Z,0.58
2023-03-11T09:51:32.840Z,0.56
2023-03-11T09:54:05.850Z,0.79
2023-03-11T09:56:35.624Z,0.55
2023-03-11T09:59:15.346Z,0.34
2023-03-11T10:01:44.646Z,0.79
2023-03-11T10:04:14.774Z,0.73
2023-03-11T10:06:44.506Z,0.88
2023-03-11T10:09:31.019Z,0.69
2023-03-11T10:12:01.484Z,0.48
2023-03-11T10:14:54.840Z,0.68
2023-03-11T10:17:33.865Z,0.90
2023-03-11T10:20:07.549Z,0.71
2023-03-11T10:22:54.160Z,0.57
2023-03-11T10:25:34.205Z,0.55
2023-03-11T10:28:14.873Z,0.70
2023-03-11T10:30:47.274Z,0.68
2023-03-11T10:33:23.917Z,0.95
2023-03-11T10:35:55.494Z,0.80
2023-03-11T10:38:33.157Z,0.65
2023-03-11T10:41:03.389Z,0.79
2023-03-11T10:43:49.305Z,0.97
2023-03-11T10:46:21.132Z,0.73
2023-03-11T10:48:48.748Z,1.16
2023-03-11T10:51:22.981Z,1.12
2023-03-11T10:53:52.104Z,1.24
2023-03-11T10:56:39.421Z,1.38
2023-03-11T10:59:22.360Z,1.39
2023-03-11T11:02:00.388Z,1.22
2023-03-11T11:04:34.845Z,1.30
2023-03-11T11:07:28.663Z,1.35
2023-03-11T11:10:12.867Z,2.11
2023-03-11T11:12:52.005Z,2.03
2023-03-11T11:15:25.555Z,2.65
2023-03-11T11:17:55.677Z,1.82
2023-03-11T11:20:24.273Z,1.82
2023-03-11T11:23:01.926Z,1.74
2023-03-11T11:25:37.347Z,2.02
2023-03-11T11:28:21.104Z,1.46
2023-03-11T11:30:56.248Z,1.37
2023-03-11T11:33:27.305Z,1.57
2023-03-11T11:35:56.532Z,1.38
2023-03-11T11:38:25.235Z,1.35
2023-03-11T11:40:55.133Z,1.23
2023-03-11T11:43:28.297Z,1.21
2023-03-11T11:45:57.811Z,0.98
2023-03-11T11:48:43.829Z,0.84
2023-03-11T11:51:18.536Z,0.67
2023-03-11T11:53:49.924Z,0.68
2023-03-11T11:56:17.337Z,0.62
2023-03-11T11:58:44.317Z,0.81
2023-03-11T12:01:14.852Z,0.78
2023-03-11T12:04:00.680Z,1.14
2023-03-11T12:06:40.234Z,1.24
2023-03-11T12:09:16.420Z,1.15
2023-03-11T12:11:52.687Z,1.44
2023-03-11T12:14:19.675Z,1.40
2023-03-11T12:17:18.476Z,1.08
2023-03-11T12:19:46.002Z,0.94
2023-03-11T12:22:32.762Z,1.60
2023-03-11T12:25:06.406Z,1.53
2023-03-11T12:27:56.093Z,1.33
2023-03-11T12:30:31.919Z,1.36
2023-03-11T12:33:03.460Z,1.43
2023-03-11T12:35:34.629Z,0.83
2023-03-11T12:38:04.837Z,0.85
2023-03-11T12:40:57.735Z,1.28
2023-03-11T12:43:30.256Z,1.70
2023-03-11T12:46:01.649Z,1.74
2023-03-11T12:48:32.575Z,1.38
2023-03-11T12:50:59.982Z,1.25
2023-03-11T12:53:44.182Z,1.45
2023-03-11T12:56:14.521Z,1.37
2023-03-11T12:58:51.350Z,1.86
2023-03-11T13:01:38.684Z,1.69
2023-03-11T13:04:24.996Z,1.14
2023-03-11T13:06:52.338Z,1.71
2023-03-11T13:09:20.079Z,1.72
2023-03-11T13:11:47.781Z,2.08
2023-03-11T13:14:16.440Z,1.78
2023-03-11T13:16:44.040Z,1.70
2023-03-11T13:19:26.738Z,2.10
2023-03-11T13:21:58.019Z,1.77
2023-03-11T13:24:29.719Z,1.85
2023-03-11T13:27:00.483Z,1.54
2023-03-11T13:29:52.242Z,1.18
2023-03-11T13:32:38.170Z,1.34
2023-03-11T13:35:24.461Z,1.32
2023-03-11T13:38:00.623Z,1.25
2023-03-11T13:40:34.846Z,1.55
2023-03-11T13:43:12.491Z,1.06
2023-03-11T13:45:39.970Z,1.87
2023-03-11T13:48:26.028Z,1.48
2023-03-11T13:50:57.028Z,1.30
2023-03-11T13:53:29.957Z,1.55
2023-03-11T13:55:58.076Z,1.65
2023-03-11T13:58:27.295Z,1.54
2023-03-11T14:00:56.989Z,1.79
2023-03-11T14:03:25.584Z,1.63
2023-03-11T14:05:57.943Z,1.53
2023-03-11T14:08:33.486Z,1.82
2023-03-11T14:11:04.545Z,1.57
2023-03-11T14:13:32.767Z,1.77
2023-03-11T14:16:09.331Z,2.00
2023-03-11T14:18:40.889Z,2.97
2023-03-11T14:21:19.785Z,3.01
2023-03-11T14:23:49.197Z,1.68
2023-03-11T14:26:16.523Z,2.43
2023-03-11T14:28:46.213Z,2.60
2023-03-11T14:31:39.953Z,1.83
2023-03-11T14:34:10.496Z,2.23
2023-03-11T14:36:42.434Z,1.61
2023-03-11T14:39:28.348Z,1.86
2023-03-11T14:41:58.289Z,1.75
2023-03-11T14:44:26.702Z,2.83
2023-03-11T14:46:57.565Z,2.83
2023-03-11T14:49:24.858Z,1.61
2023-03-11T14:51:58.690Z,1.76
2023-03-11T14:54:28.245Z,3.21
2023-03-11T14:57:04.820Z,2.61
2023-03-11T14:59:32.700Z,3.76
2023-03-11T15:02:09.660Z,2.49
2023-03-11T15:04:38.859Z,3.28
2023-03-11T15:07:06.469Z,1.94
2023-03-11T15:09:33.930Z,1.41
2023-03-11T15:12:04.143Z,1.58
2023-03-11T15:14:35.759Z,1.35
2023-03-11T15:17:37.417Z,1.57
2023-03-11T15:20:39.547Z,1.13
2023-03-11T15:23:07.747Z,1.72
2023-03-11T15:25:37.686Z,1.87
2023-03-11T15:28:25.242Z,2.18
2023-03-11T15:31:12.225Z,1.98
2023-03-11T15:33:40.166Z,1.60
2023-03-11T15:36:27.127Z,1.27
2023-03-11T15:39:13.847Z,1.36
2023-03-11T15:41:42.084Z,1.37
2023-03-11T15:44:21.794Z,1.49
2023-03-11T15:46:49.336Z,1.20
2023-03-11T15:49:16.950Z,1.08
2023-03-11T15:51:44.106Z,1.18
2023-03-11T15:54:11.918Z,0.95
2023-03-11T15:56:40.394Z,0.88
2023-03-11T15:59:12.363Z,1.14
2023-03-11T16:01:39.578Z,1.09
2023-03-11T16:04:18.266Z,0.93
2023-03-11T16:06:53.921Z,1.03
2023-03-11T16:09:33.154Z,0.99
2023-03-11T16:12:01.767Z,1.06
2023-03-11T16:14:29.206Z,0.98
2023-03-11T16:17:07.782Z,1.03
2023-03-11T16:19:49.646Z,0.96
2023-03-11T16:22:21.388Z,1.02
2023-03-11T16:24:53.010Z,0.97
2023-03-11T16:27:33.849Z,0.77
2023-03-11T16:30:05.238Z,0.83
2023-03-11T16:32:32.654Z,0.79
2023-03-11T16:35:00.108Z,0.80
2023-03-11T16:37:27.190Z,0.91
2023-03-11T16:40:02.267Z,0.62
2023-03-11T16:42:36.272Z,0.52
2023-03-11T16:45:04.279Z,0.59
2023-03-11T16:47:34.131Z,0.63
2023-03-11T16:50:02.883Z,0.60
2023-03-11T16:52:30.678Z,0.76
2023-03-11T16:54:58.558Z,0.66
2023-03-11T16:57:26.241Z,0.47
2023-03-11T16:59:54.052Z,0.55
2023-03-11T17:02:24.451Z,0.64
2023-03-11T17:04:52.696Z,0.53
2023-03-11T17:07:20.304Z,0.56
2023-03-11T17:09:47.958Z,0.54
2023-03-11T17:12:19.282Z,0.48
2023-03-11T17:14:47.184Z,0.47
2023-03-11T17:17:14.631Z,0.29
2023-03-11T17:19:42.569Z,0.46
2023-03-11T17:22:10.200Z,0.26
2023-03-11T17:24:40.031Z,0.43
2023-03-11T17:27:07.601Z,0.39
2023-03-11T17:29:35.670Z,0.26
2023-03-11T17:32:03.481Z,0.40
2023-03-11T17:34:31.611Z,0.30
2023-03-11T17:36:59.465Z,0.24
2023-03-11T17:39:30.800Z,0.42
2023-03-11T17:41:59.116Z,0.47
2023-03-11T17:44:28.913Z,0.32
2023-03-11T17:46:59.226Z,0.41
2023-03-11T17:49:27.416Z,0.35
2023-03-11T17:51:55.200Z,0.23
2023-03-11T17:54:23.122Z,0.03
2023-03-11T17:56:52.143Z,0.08
2023-03-11T17:59:20.447Z,0.21
2023-03-11T18:01:48.950Z,0.09
2023-03-11T18:04:17.066Z,0.21
2023-03-11T18:06:44.704Z,0.14
2023-03-11T18:09:12.522Z,0.09
2023-03-11T18:11:39.938Z,0.19
2023-03-11T18:14:07.750Z,0.21
2023-03-11T18:16:35.180Z,0.19
2023-03-11T18:19:03.074Z,0.20
2023-03-11T18:21:30.800Z,0.20
2023-03-11T18:24:00.548Z,0.26
2023-03-11T18:26:28.883Z,0.13
2023-03-11T18:28:57.114Z,0.28
2023-03-11T18:31:24.894Z,0.09
2023-03-11T18:33:53.696Z,0.19
2023-03-11T18:36:22.306Z,0.07
2023-03-11T18:38:52.234Z,0.10
2023-03-11T18:41:20.467Z,0.07
2023-03-11T18:43:51.588Z,-0.04
2023-03-11T18:46:19.414Z,0.17
2023-03-11T18:48:47.320Z,0.19
2023-03-11T18:51:15.774Z,0.20
2023-03-11T18:53:43.587Z,-0.05
2023-03-11T18:56:15.541Z,0.13
2023-03-11T18:58:54.381Z,0.10
2023-03-11T19:01:22.678Z,0.04
2023-03-11T19:03:52.859Z,0.03
2023-03-11T19:06:20.478Z,0.12
2023-03-11T19:08:48.550Z,-0.04
2023-03-11T19:11:16.921Z,-0.07
2023-03-11T19:13:48.084Z,-0.12
2023-03-11T19:16:17.070Z,-0.09
2023-03-11T19:18:45.053Z,-0.02
2023-03-11T19:21:13.036Z,-0.19
2023-03-11T19:23:40.513Z,-0.23
2023-03-11T19:26:07.861Z,-0.21
2023-03-11T19:28:35.474Z,-0.24
2023-03-11T19:31:03.320Z,-0.22
2023-03-11T19:33:31.232Z,-0.15
2023-03-11T19:36:00.167Z,-0.17
2023-03-11T19:38:28.418Z,-0.14
2023-03-11T19:41:01.582Z,-0.11
2023-03-11T19:43:29.342Z,-0.18
2023-03-11T19:45:56.791Z,-0.07
2023-03-11T19:48:24.617Z,-0.08
2023-03-11T19:50:51.889Z,-0.04
2023-03-11T19:53:19.944Z,-0.20
2023-03-11T19:55:48.228Z,-0.15
2023-03-11T19:58:15.906Z,-0.19
2023-03-11T20:00:43.560Z,-0.13
2023-03-11T20:03:11.571Z,-0.25
2023-03-11T20:05:39.634Z,-0.11
2023-03-11T20:08:08.041Z,-0.18
2023-03-11T20:10:39.086Z,-0.19
2023-03-11T20:13:06.543Z,-0.25
2023-03-11T20:15:33.676Z,-0.11
2023-03-11T20:18:02.498Z,-0.23
2023-03-11T20:20:30.505Z,-0.28
2023-03-11T20:22:58.703Z,-0.11
2023-03-11T20:25:26.791Z,-0.29
2023-03-11T20:27:54.601Z,-0.26
2023-03-11T20:30:22.096Z,-0.27
2023-03-11T20:32:50.047Z,-0.23
2023-03-11T20:35:17.465Z,-0.40
2023-03-11T20:37:45.553Z,-0.32
2023-03-11T20:40:14.225Z,-0.49
2023-03-11T20:42:43.365Z,-0.46
2023-03-11T20:45:10.944Z,-0.51
2023-03-11T20:47:38.518Z,-0.60
2023-03-11T20:50:06.182Z,-0.50
2023-03-11T20:52:36.136Z,-0.64
2023-03-11T20:55:07.081Z,-0.64
2023-03-11T20:57:35.335Z,-0.77
2023-03-11T21:00:05.004Z,-0.64
2023-03-11T21:02:34.533Z,-0.68
2023-03-11T21:05:02.163Z,-0.72
2023-03-11T21:07:30.149Z,-0.67
2023-03-11T21:09:58.115Z,-0.66
2023-03-11T21:12:26.156Z,-0.74
2023-03-11T21:14:53.613Z,-0.53
2023-03-11T21:17:21.684Z,-0.62
2023-03-11T21:19:48.773Z,-0.64
2023-03-11T21:22:16.450Z,-0.62
2023-03-11T21:24:45.588Z,-0.69
2023-03-11T21:27:13.552Z,-0.78
2023-03-11T21:29:40.985Z,-0.91
2023-03-11T21:32:09.138Z,-0.84
2023-03-11T21:34:36.761Z,-0.99
2023-03-11T21:37:05.112Z,-0.99
2023-03-11T21:39:33.185Z,-0.91
2023-03-11T21:42:01.208Z,-1.09
2023-03-11T21:44:29.033Z,-1.00
2023-03-11T21:46:56.791Z,-0.98
2023-03-11T21:49:24.634Z,-0.88
2023-03-11T21:51:52.265Z,-1.00
2023-03-11T21:54:19.764Z,-1.03
2023-03-11T21:56:47.443Z,-1.25
2023-03-11T21:59:14.811Z,-1.42
2023-03-11T22:01:42.650Z,-1.48
2023-03-11T22:04:10.195Z,-1.43
2023-03-11T22:06:37.975Z,-1.50
2023-03-11T22:09:05.582Z,-1.39
2023-03-11T22:11:33.164Z,-1.55
2023-03-11T22:14:01.057Z,-1.64
2023-03-11T22:16:28.873Z,-1.67
2023-03-11T22:18:56.081Z,-1.61
2023-03-11T22:21:23.703Z,-1.42
2023-03-11T22:23:50.774Z,-1.42
2023-03-11T22:26:18.109Z,-1.60
2023-03-11T22:28:45.268Z,-1.60
2023-03-11T22:31:14.213Z,-1.65
2023-03-11T22:33:41.754Z,-1.59
2023-03-11T22:36:09.683Z,-1.41
2023-03-11T22:38:38.822Z,-1.56
2023-03-11T22:41:07.964Z,-1.67
2023-03-11T22:43:35.812Z,-1.64
2023-03-11T22:46:04.712Z,-1.57
2023-03-11T22:48:32.606Z,-1.34
2023-03-11T22:51:00.308Z,-1.50
2023-03-11T22:53:27.269Z,-1.49
2023-03-11T22:55:54.889Z,-1.40
2023-03-11T22:58:21.911Z,-1.51
2023-03-11T23:00:49.255Z,-1.51
2023-03-11T23:03:16.582Z,-1.39
2023-03-11T23:05:45.943Z,-1.45
2023-03-11T23:08:14.946Z,-1.32
2023-03-11T23:10:46.103Z,-1.16
2023-03-11T23:13:13.207Z,-1.07
2023-03-11T23:15:41.825Z,-0.96
2023-03-11T23:18:09.095Z,-0.81
2023-03-11T23:20:37.990Z,-0.66
2023-03-11T23:23:05.631Z,-0.71
2023-03-11T23:25:33.433Z,-0.59
2023-03-11T23:28:01.401Z,-0.62
2023-03-11T23:30:28.853Z,-0.68
2023-03-11T23:32:57.228Z,-0.49
2023-03-11T23:35:24.726Z,-0.48
2023-03-11T23:37:51.810Z,-0.29
2023-03-11T23:40:19.387Z,-0.43
2023-03-11T23:42:46.439Z,-0.41
2023-03-11T23:45:13.852Z,-0.39
2023-03-11T23:47:40.913Z,-0.30
2023-03-11T23:50:09.030Z,-0.35
2023-03-11T23:52:36.032Z,-0.50
2023-03-11T23:55:03.399Z,-0.76
2023-03-11T23:57:30.352Z,-0.95
2023-03-11T23:59:57.776Z,-0.92
